Time;durP1;ratioP1;P1;durP2;ratioP2;P2;SDS_P1;SDS_P2;PMS_P1;PMS_P2;Temp;Humidity;BMP_temperature;BMP_pressure;BME280_temperature;BME280_humidity;BME280_pressure;Samples;Min_cycle;Max_cycle;Signal;HPM_P1;HPM_P2
2022/11/18 04:20:01;;;;;;;32.97;31.37;;;9.90;99.90;;;;;;6020254;23;20410;-77
2022/11/18 04:22:27;;;;;;;33.77;31.87;;;9.70;99.90;;;;;;5010381;28;20468;-80
2022/11/18 04:24:54;;;;;;;32.83;31.23;;;9.70;99.90;;;;;;5012353;28;20998;-81
2022/11/18 04:27:21;;;;;;;33.60;31.80;;;9.70;99.90;;;;;;5012410;28;20464;-83
2022/11/18 04:29:48;;;;;;;33.23;31.63;;;9.70;99.90;;;;;;5013104;28;20442;-82
2022/11/18 04:32:14;;;;;;;35.33;33.43;;;9.70;99.90;;;;;;5012787;28;20457;-83
2022/11/18 04:34:41;;;;;;;36.03;34.23;;;9.60;99.90;;;;;;5013654;28;20457;-82
2022/11/18 04:37:09;;;;;;;34.80;33.10;;;9.80;99.90;;;;;;5012830;28;20477;-80
2022/11/18 04:39:36;;;;;;;34.30;32.50;;;9.60;99.90;;;;;;5013029;28;20448;-81
2022/11/18 04:42:03;;;;;;;34.60;32.90;;;9.60;99.90;;;;;;5012141;28;20651;-80
2022/11/18 04:44:31;;;;;;;33.60;32.10;;;9.50;99.90;;;;;;5012394;28;20481;-81
2022/11/18 04:46:59;;;;;;;33.80;32.10;;;9.70;99.90;;;;;;5013060;28;20678;-77
2022/11/18 04:49:26;;;;;;;33.97;32.20;;;9.60;99.90;;;;;;5012777;28;20452;-77
2022/11/18 04:51:53;;;;;;;32.40;30.60;;;9.70;99.90;;;;;;5012707;28;20450;-77
2022/11/18 04:54:22;;;;;;;32.00;30.60;;;9.60;99.90;;;;;;5012435;28;20453;-78
2022/11/18 04:56:49;;;;;;;32.20;30.60;;;9.50;99.90;;;;;;5012328;28;20445;-80
2022/11/18 04:59:17;;;;;;;33.60;31.87;;;9.40;99.90;;;;;;5012382;28;20460;-78
2022/11/18 05:01:44;;;;;;;33.47;31.77;;;9.50;99.90;;;;;;5012125;28;20935;-79
2022/11/18 05:04:13;;;;;;;33.93;32.33;;;9.40;99.90;;;;;;5012172;28;20457;-79
2022/11/18 05:06:40;;;;;;;32.57;30.97;;;9.50;99.90;;;;;;5012155;28;20453;-81
2022/11/18 05:09:07;;;;;;;32.83;31.13;;;9.30;99.90;;;;;;5012256;28;20442;-79
2022/11/18 05:14:19;;;;;;;32.47;30.87;;;9.20;99.90;;;;;;5012318;28;20513;-80
2022/11/18 05:16:46;;;;;;;31.60;30.13;;;9.20;99.90;;;;;;5012148;28;20477;-79
2022/11/18 05:19:12;;;;;;;32.57;30.97;;;9.10;99.90;;;;;;5012438;28;20830;-81
2022/11/18 05:21:39;;;;;;;34.17;32.47;;;9.20;99.90;;;;;;5012266;28;20488;-81
2022/11/18 05:24:06;;;;;;;32.80;31.20;;;9.10;99.90;;;;;;5012409;28;20452;-80
2022/11/18 05:26:34;;;;;;;33.93;32.43;;;9.10;99.90;;;;;;5012214;28;20851;-80
2022/11/18 05:29:01;;;;;;;33.20;31.80;;;9.00;99.90;;;;;;5012004;28;20449;-79
2022/11/18 05:31:28;;;;;;;33.83;32.27;;;9.00;99.90;;;;;;5011912;28;21043;-79
2022/11/18 05:33:55;;;;;;;33.50;32.00;;;8.90;99.90;;;;;;5012292;28;20453;-81
2022/11/18 05:36:23;;;;;;;34.10;32.50;;;8.80;99.90;;;;;;5012039;28;20449;-83
2022/11/18 05:38:50;;;;;;;33.90;32.30;;;8.80;99.90;;;;;;5011651;28;20457;-82
2022/11/18 05:43:59;;;;;;;32.17;30.77;;;8.70;99.90;;;;;;5010671;28;20508;-82
2022/11/18 05:46:26;;;;;;;33.27;31.77;;;8.70;99.90;;;;;;5012049;28;20486;-81
2022/11/18 05:48:53;;;;;;;33.00;31.50;;;8.80;99.90;;;;;;5011887;28;20936;-83
2022/11/18 05:51:20;;;;;;;31.53;30.13;;;8.90;99.90;;;;;;5012106;28;20446;-82
2022/11/18 05:53:48;;;;;;;33.80;32.30;;;8.90;99.90;;;;;;5011535;28;20461;-81
2022/11/18 05:56:20;;;;;;;33.67;32.17;;;8.80;99.90;;;;;;5011460;28;20450;-80
2022/11/18 05:58:47;;;;;;;34.00;32.50;;;8.80;99.90;;;;;;5011328;28;20449;-79
2022/11/18 06:01:17;;;;;;;33.57;32.07;;;9.20;99.90;;;;;;5011126;28;20454;-80
2022/11/18 06:03:44;;;;;;;34.20;32.70;;;8.80;99.90;;;;;;5011484;28;20457;-82
2022/11/18 06:06:15;;;;;;;34.80;33.20;;;8.90;99.90;;;;;;5011235;28;20496;-81
2022/11/18 06:08:46;;;;;;;33.37;31.77;;;8.80;99.90;;;;;;5011587;28;20926;-81
2022/11/18 06:11:15;;;;;;;33.73;32.23;;;8.70;99.90;;;;;;5011172;28;20445;-79
2022/11/18 06:13:49;;;;;;;33.20;31.70;;;8.80;99.90;;;;;;5010879;28;20446;-79
2022/11/18 06:16:18;;;;;;;33.50;32.00;;;8.80;99.90;;;;;;5011013;28;20452;-79
2022/11/18 06:18:45;;;;;;;34.37;32.87;;;8.80;99.90;;;;;;5010212;28;20446;-79
2022/11/18 06:21:12;;;;;;;33.03;31.53;;;8.80;99.90;;;;;;5011124;28;20477;-80
2022/11/18 06:23:41;;;;;;;34.67;33.07;;;8.80;99.90;;;;;;5010870;28;20986;-80
2022/11/18 06:26:10;;;;;;;34.60;33.10;;;8.80;99.90;;;;;;5010520;28;20489;-79
2022/11/18 06:28:38;;;;;;;34.13;32.53;;;8.80;99.90;;;;;;5010872;28;20458;-78
2022/11/18 06:31:05;;;;;;;33.50;32.00;;;8.90;99.90;;;;;;5010578;28;20818;-78
2022/11/18 06:33:33;;;;;;;33.60;32.00;;;8.80;99.90;;;;;;5010610;28;20727;-77
2022/11/18 06:36:00;;;;;;;35.77;34.03;;;8.80;99.90;;;;;;5010229;28;20457;-76
2022/11/18 06:38:27;;;;;;;33.40;31.80;;;8.70;99.90;;;;;;5010655;28;20446;-76
2022/11/18 06:40:53;;;;;;;34.63;33.03;;;8.70;99.90;;;;;;5010490;28;20456;-76
2022/11/18 06:43:40;;;;;;;35.63;33.10;;;8.70;99.90;;;;;;5010109;28;20450;-76
2022/11/18 06:48:54;;;;;;;34.13;32.37;;;8.60;99.90;;;;;;5010651;28;20500;-76
2022/11/18 06:51:21;;;;;;;33.90;32.10;;;8.60;99.90;;;;;;5010449;28;20453;-78
2022/11/18 06:53:48;;;;;;;36.63;33.90;;;8.60;99.90;;;;;;5010300;28;20453;-78
2022/11/18 06:56:16;;;;;;;37.43;35.30;;;8.60;99.90;;;;;;5010136;28;20442;-77
2022/11/18 06:58:43;;;;;;;38.87;36.60;;;8.60;99.90;;;;;;5010225;28;20816;-78
2022/11/18 07:01:11;;;;;;;37.47;35.07;;;8.60;99.90;;;;;;5010522;28;20450;-76
2022/11/18 07:03:38;;;;;;;42.27;39.50;;;8.60;99.90;;;;;;5010413;28;20507;-77
2022/11/18 07:06:06;;;;;;;38.70;36.50;;;8.70;99.90;;;;;;5010117;28;20481;-77
2022/11/18 07:08:34;;;;;;;41.70;39.30;;;8.70;99.90;;;;;;5010070;28;20446;-77
2022/11/18 07:11:01;;;;;;;37.80;35.57;;;8.70;99.90;;;;;;5009861;28;20453;-77
2022/11/18 07:13:28;;;;;;;36.03;33.90;;;8.70;99.90;;;;;;5009883;28;20476;-76
2022/11/18 07:15:55;;;;;;;37.17;34.87;;;8.70;99.90;;;;;;5010141;28;20453;-78
2022/11/18 07:18:21;;;;;;;37.10;35.00;;;8.70;99.90;;;;;;5010125;28;20450;-79
2022/11/18 07:20:48;;;;;;;38.17;36.13;;;8.80;99.90;;;;;;5009471;28;20478;-79
2022/11/18 07:23:16;;;;;;;36.70;34.43;;;8.70;99.90;;;;;;5010154;28;20457;-80
2022/11/18 07:25:43;;;;;;;39.23;36.27;;;8.80;99.90;;;;;;5010153;28;20477;-78
2022/11/18 07:28:10;;;;;;;38.80;36.60;;;8.80;99.90;;;;;;5010220;28;20453;-80
2022/11/18 07:30:36;;;;;;;37.47;35.40;;;8.90;99.90;;;;;;5014206;28;21117;-79
2022/11/18 07:33:03;;;;;;;36.23;34.47;;;8.90;99.90;;;;;;5013692;28;20481;-81
2022/11/18 07:35:30;;;;;;;33.67;31.87;;;9.00;99.90;;;;;;5013574;28;20445;-79
2022/11/18 07:37:57;;;;;;;35.50;33.80;;;9.00;99.90;;;;;;5014467;28;20446;-81
2022/11/18 07:40:25;;;;;;;36.17;34.53;;;9.10;99.90;;;;;;5014305;28;20450;-81
2022/11/18 07:42:52;;;;;;;35.47;33.73;;;9.10;99.90;;;;;;5014527;28;20450;-83
2022/11/18 07:45:18;;;;;;;35.07;33.47;;;9.10;99.90;;;;;;5013596;28;20505;-79
2022/11/18 07:47:45;;;;;;;33.47;31.90;;;9.10;99.90;;;;;;5013915;28;20818;-79
2022/11/18 07:50:12;;;;;;;35.80;34.20;;;9.10;99.90;;;;;;5013976;28;20454;-79
2022/11/18 07:52:38;;;;;;;35.27;33.47;;;9.30;99.90;;;;;;5014379;28;20473;-81
2022/11/18 07:55:06;;;;;;;36.17;34.23;;;9.40;99.90;;;;;;5013781;28;20461;-79
2022/11/18 07:57:34;;;;;;;36.73;35.10;;;9.40;99.90;;;;;;5013595;28;20445;-81
2022/11/18 08:00:01;;;;;;;36.50;34.80;;;9.40;99.90;;;;;;5014002;28;21343;-84
2022/11/18 08:02:27;;;;;;;35.70;34.10;;;9.60;99.90;;;;;;5014131;28;20467;-77
2022/11/18 08:04:54;;;;;;;35.67;33.87;;;9.70;99.90;;;;;;5011072;28;20480;-73
2022/11/18 08:07:21;;;;;;;35.33;33.70;;;9.70;99.90;;;;;;5012021;28;20485;-75
2022/11/18 08:09:48;;;;;;;36.70;34.80;;;9.70;99.90;;;;;;5031657;28;20956;-73
2022/11/18 08:12:14;;;;;;;34.70;33.20;;;9.70;99.90;;;;;;5029021;28;20535;-73
2022/11/18 08:14:42;;;;;;;36.43;34.83;;;9.70;99.90;;;;;;5031903;28;20452;-73
2022/11/18 08:17:09;;;;;;;37.53;35.73;;;9.70;99.90;;;;;;5032368;28;20453;-75
2022/11/18 08:19:36;;;;;;;37.13;35.23;;;9.70;99.90;;;;;;5031272;28;20468;-75
2022/11/18 08:22:03;;;;;;;35.23;33.50;;;9.80;99.90;;;;;;5031847;28;20473;-74
2022/11/18 08:24:29;;;;;;;35.20;33.37;;;9.90;99.90;;;;;;5031773;28;20445;-75
2022/11/18 08:26:56;;;;;;;36.20;34.30;;;10.10;99.90;;;;;;5031886;28;20484;-74
2022/11/18 08:29:23;;;;;;;35.60;33.90;;;10.10;99.90;;;;;;5032195;28;20448;-75
2022/11/18 08:31:51;;;;;;;36.87;35.07;;;10.20;99.90;;;;;;5031783;28;20803;-74
2022/11/18 08:34:17;;;;;;;37.40;35.60;;;10.00;99.90;;;;;;5031864;28;20456;-75
2022/11/18 08:36:44;;;;;;;35.90;34.20;;;9.90;99.90;;;;;;5031661;28;20453;-75
2022/11/18 08:39:11;;;;;;;36.13;34.43;;;9.90;99.90;;;;;;5031825;28;20464;-75
2022/11/18 08:41:40;;;;;;;36.80;35.00;;;9.90;99.90;;;;;;5031130;28;20453;-75
2022/11/18 08:44:10;;;;;;;35.90;34.20;;;10.00;99.90;;;;;;5031543;28;20452;-75
2022/11/18 08:46:36;;;;;;;34.83;33.13;;;10.00;99.90;;;;;;5031404;28;20491;-75
2022/11/18 08:49:04;;;;;;;36.30;34.60;;;10.00;99.90;;;;;;5031419;28;20799;-75
2022/11/18 08:51:31;;;;;;;35.20;33.70;;;10.00;99.90;;;;;;5022657;28;20470;-76
2022/11/18 08:53:58;;;;;;;34.80;33.20;;;9.90;99.90;;;;;;5001409;28;20450;-75
2022/11/18 08:56:25;;;;;;;36.67;35.07;;;10.10;99.90;;;;;;4992602;28;20471;-74
2022/11/18 08:58:53;;;;;;;35.20;33.60;;;10.30;99.90;;;;;;4992500;28;20443;-73
2022/11/18 09:01:19;;;;;;;36.13;34.30;;;10.40;99.90;;;;;;4992163;28;20450;-74
2022/11/18 09:03:47;;;;;;;35.97;34.17;;;10.50;99.90;;;;;;5002328;28;20843;-74
2022/11/18 09:06:16;;;;;;;36.80;35.00;;;10.60;99.90;;;;;;5000122;28;20478;-75
2022/11/18 09:08:44;;;;;;;36.70;35.00;;;10.70;99.90;;;;;;5012045;28;20461;-75
2022/11/18 09:11:13;;;;;;;36.60;34.90;;;10.70;99.90;;;;;;4998829;28;20450;-75
2022/11/18 09:13:40;;;;;;;34.33;32.53;;;10.80;99.90;;;;;;4992813;28;20451;-74
2022/11/18 09:16:07;;;;;;;36.30;34.60;;;10.90;99.90;;;;;;4992566;28;20817;-75
2022/11/18 09:18:34;;;;;;;36.30;34.70;;;10.60;99.90;;;;;;4996472;28;20508;-76
2022/11/18 09:21:03;;;;;;;37.07;35.47;;;10.50;99.90;;;;;;5011902;28;20482;-75
2022/11/18 09:23:32;;;;;;;36.47;34.87;;;10.50;99.90;;;;;;5012065;28;20460;-74
2022/11/18 09:26:00;;;;;;;37.20;35.60;;;10.40;99.90;;;;;;5011902;28;20486;-75
2022/11/18 09:28:27;;;;;;;36.63;34.83;;;10.20;99.90;;;;;;5012057;28;21284;-74
2022/11/18 09:30:54;;;;;;;35.80;34.20;;;10.10;99.90;;;;;;5011919;28;20492;-76
2022/11/18 09:33:20;;;;;;;34.77;33.17;;;10.30;99.90;;;;;;5011605;28;20454;-76
2022/11/18 09:35:47;;;;;;;40.00;38.20;;;10.30;99.90;;;;;;5005998;28;20478;-76
2022/11/18 09:38:14;;;;;;;37.57;35.77;;;10.30;99.90;;;;;;4992213;28;20447;-76
2022/11/18 09:40:56;;;;;;;37.73;36.03;;;10.40;99.90;;;;;;4992437;28;20453;-75
2022/11/18 09:43:30;;;;;;;36.87;35.20;;;10.20;99.90;;;;;;4992291;28;20459;-76
2022/11/18 09:46:04;;;;;;;36.03;34.43;;;10.30;99.90;;;;;;4991723;28;20478;-75
2022/11/18 09:51:12;;;;;;;37.20;35.50;;;10.10;99.90;;;;;;4991721;28;20435;-76
2022/11/18 09:53:44;;;;;;;37.17;35.37;;;10.20;99.90;;;;;;5013911;28;20825;-75
2022/11/18 09:56:15;;;;;;;36.47;34.77;;;10.20;99.90;;;;;;5030191;28;20452;-75
2022/11/18 09:58:44;;;;;;;36.73;35.03;;;10.30;99.90;;;;;;5030327;28;20459;-74
2022/11/18 10:01:13;;;;;;;36.83;35.03;;;10.30;99.90;;;;;;5028573;28;20445;-75
2022/11/18 10:07:13;;;;;;;37.30;35.50;;;10.70;99.90;;;;;;5028000;28;21189;-75
2022/11/18 10:09:41;;;;;;;37.87;36.07;;;11.00;99.90;;;;;;5030257;28;20464;-75
2022/11/18 10:12:19;;;;;;;39.40;37.50;;;11.20;99.90;;;;;;5030284;28;20468;-75
2022/11/18 10:15:13;;;;;;;39.10;37.20;;;11.20;99.90;;;;;;5029770;28;20622;-75
2022/11/18 10:17:49;;;;;;;38.00;36.20;;;11.10;99.90;;;;;;5029999;28;20458;-74
2022/11/18 10:20:34;;;;;;;38.67;36.80;;;11.10;99.90;;;;;;5029762;28;20683;-74
2022/11/18 10:23:12;;;;;;;38.77;36.97;;;11.10;99.90;;;;;;5029888;28;20455;-74
2022/11/18 10:25:39;;;;;;;39.30;37.50;;;11.20;99.90;;;;;;5030107;28;20456;-72
2022/11/18 10:28:17;;;;;;;41.30;39.30;;;11.20;99.90;;;;;;5029999;28;20946;-73
2022/11/18 10:30:44;;;;;;;40.13;38.03;;;11.20;99.90;;;;;;5029626;28;20448;-75
2022/11/18 10:33:27;;;;;;;39.60;37.63;;;11.20;99.90;;;;;;5030193;28;20441;-76
2022/11/18 10:36:18;;;;;;;41.03;39.03;;;11.10;99.90;;;;;;5029983;28;20449;-76
2022/11/18 10:38:45;;;;;;;40.67;38.77;;;11.00;99.90;;;;;;5029914;28;20453;-74
2022/11/18 10:41:14;;;;;;;41.40;39.40;;;10.80;99.90;;;;;;5029632;28;20457;-77
2022/11/18 10:43:51;;;;;;;40.97;38.97;;;10.70;99.90;;;;;;5029881;28;20445;-76
2022/11/18 10:46:25;;;;;;;40.00;38.00;;;10.60;99.90;;;;;;5029712;28;20835;-75
2022/11/18 10:49:15;;;;;;;40.13;38.13;;;10.40;99.90;;;;;;5004159;28;20458;-75
2022/11/18 10:51:43;;;;;;;39.13;37.23;;;10.60;99.90;;;;;;4996612;28;20880;-76
2022/11/18 10:54:15;;;;;;;40.23;38.23;;;10.70;99.90;;;;;;5010253;28;20449;-74
2022/11/18 10:56:47;;;;;;;39.00;36.90;;;10.90;99.90;;;;;;4998006;28;20439;-75
2022/11/18 10:59:24;;;;;;;38.90;37.00;;;10.90;99.90;;;;;;4990435;28;20442;-73
2022/11/18 11:02:04;;;;;;;38.73;36.73;;;10.90;99.90;;;;;;4990603;28;20472;-74
2022/11/18 11:04:31;;;;;;;37.83;36.00;;;10.80;99.90;;;;;;4995917;28;20449;-74
2022/11/18 11:06:58;;;;;;;39.20;37.40;;;10.90;99.90;;;;;;5009980;28;20489;-73
2022/11/18 11:09:29;;;;;;;39.80;37.77;;;11.00;99.90;;;;;;5010316;28;20453;-76
2022/11/18 11:11:59;;;;;;;36.77;35.07;;;11.00;99.90;;;;;;5010053;28;20449;-75
2022/11/18 11:14:32;;;;;;;39.33;37.23;;;10.90;99.90;;;;;;5010372;28;20815;-75
2022/11/18 11:17:05;;;;;;;40.37;38.57;;;10.90;99.90;;;;;;5009863;28;20452;-74
2022/11/18 11:19:40;;;;;;;39.53;37.63;;;10.70;99.90;;;;;;5009793;28;20704;-74
2022/11/18 11:22:10;;;;;;;39.20;37.27;;;10.70;99.90;;;;;;4999276;28;20589;-75
2022/11/18 11:24:37;;;;;;;38.23;36.40;;;10.70;99.90;;;;;;4990462;28;20453;-76
2022/11/18 11:27:15;;;;;;;38.83;36.83;;;10.50;99.90;;;;;;4989838;28;20490;-77
2022/11/18 11:30:07;;;;;;;38.60;36.70;;;10.50;99.90;;;;;;4990032;28;20451;-74
2022/11/18 11:32:54;;;;;;;36.77;35.00;;;10.40;99.90;;;;;;4983069;28;20450;-73
2022/11/18 11:35:25;;;;;;;37.73;35.83;;;10.40;99.90;;;;;;4989772;28;20446;-73
2022/11/18 11:37:55;;;;;;;39.20;36.93;;;10.60;99.90;;;;;;4990241;28;20435;-74
2022/11/18 11:40:33;;;;;;;39.23;37.33;;;10.80;99.90;;;;;;4989804;28;20447;-72
2022/11/18 11:43:28;;;;;;;36.40;34.60;;;11.00;99.90;;;;;;4989571;28;20450;-74
2022/11/18 11:46:09;;;;;;;38.77;36.40;;;11.30;99.90;;;;;;4987199;28;20857;-72
2022/11/18 11:48:51;;;;;;;38.20;36.40;;;11.50;99.90;;;;;;4989650;28;20446;-73
2022/11/18 11:51:27;;;;;;;38.40;36.60;;;11.80;99.90;;;;;;4989742;28;20453;-73
2022/11/18 11:54:17;;;;;;;36.50;34.90;;;12.30;99.90;;;;;;4989331;28;20457;-73
2022/11/18 11:56:48;;;;;;;35.67;33.97;;;12.30;99.90;;;;;;4990319;28;20970;-72
2022/11/18 11:59:28;;;;;;;33.33;31.73;;;12.70;99.90;;;;;;5008822;28;20452;-72
2022/11/18 12:02:07;;;;;;;32.97;31.53;;;12.60;99.90;;;;;;5009394;28;20823;-74
2022/11/18 12:04:42;;;;;;;30.50;29.20;;;12.70;99.90;;;;;;5008964;28;20450;-74
2022/11/18 12:07:17;;;;;;;26.33;25.23;;;12.60;99.90;;;;;;5008758;28;20488;-74
2022/11/18 12:10:00;;;;;;;25.77;24.20;;;12.50;99.90;;;;;;5008585;28;20456;-74
2022/11/18 12:12:36;;;;;;;24.80;23.80;;;12.50;99.90;;;;;;5009170;28;20454;-74
2022/11/18 12:15:11;;;;;;;23.90;23.00;;;12.40;99.90;;;;;;5008995;28;20449;-74
2022/11/18 12:17:45;;;;;;;22.97;21.97;;;12.40;99.90;;;;;;5012982;28;20449;-73
2022/11/18 12:20:37;;;;;;;22.47;21.50;;;12.30;99.90;;;;;;5012436;28;20485;-74
2022/11/18 12:23:13;;;;;;;20.27;19.47;;;12.40;99.90;;;;;;5012203;28;20454;-74
2022/11/18 12:26:06;;;;;;;20.13;19.33;;;12.10;99.90;;;;;;5012867;28;20481;-72
2022/11/18 12:28:37;;;;;;;19.60;18.80;;;12.10;99.90;;;;;;5012243;28;20482;-72
2022/11/18 12:31:32;;;;;;;19.10;18.40;;;11.90;99.90;;;;;;5012637;28;20456;-72
2022/11/18 12:34:01;;;;;;;17.90;17.27;;;11.90;99.90;;;;;;5012199;28;20798;-72
2022/11/18 12:36:31;;;;;;;17.17;16.53;;;12.00;99.90;;;;;;5012264;28;20457;-72
2022/11/18 12:38:59;;;;;;;17.63;16.93;;;11.60;99.90;;;;;;5012406;28;20449;-72
2022/11/18 12:44:45;;;;;;;18.40;17.70;;;11.10;99.90;;;;;;4932198;29;20438;-75
2022/11/18 12:47:13;;;;;;;19.00;18.30;;;10.80;99.90;;;;;;4931964;29;20485;-75
2022/11/18 12:50:06;;;;;;;18.93;18.13;;;10.80;99.90;;;;;;4978827;28;20445;-74
2022/11/18 12:52:54;;;;;;;17.70;16.90;;;10.70;99.90;;;;;;5009029;28;20456;-73
2022/11/18 12:55:25;;;;;;;16.97;16.30;;;10.70;99.90;;;;;;5008444;28;20913;-73
2022/11/18 12:57:52;;;;;;;16.60;16.00;;;10.90;99.90;;;;;;4992516;28;20443;-73
2022/11/18 13:00:31;;;;;;;17.00;16.30;;;10.80;99.90;;;;;;4992327;28;20458;-72
2022/11/18 13:03:00;;;;;;;17.57;16.80;;;10.80;99.90;;;;;;4991933;28;20446;-73
2022/11/18 13:05:29;;;;;;;16.90;16.10;;;10.80;99.90;;;;;;4992060;28;20447;-74
2022/11/18 13:08:14;;;;;;;15.70;15.00;;;10.70;99.90;;;;;;4992362;28;20486;-74
2022/11/18 13:10:48;;;;;;;16.60;15.90;;;10.80;99.90;;;;;;4992136;28;20486;-72
2022/11/18 13:13:24;;;;;;;15.77;14.93;;;10.80;99.90;;;;;;4992024;28;20604;-73
2022/11/18 13:18:48;;;;;;;15.83;15.23;;;10.90;99.90;;;;;;4992174;28;20863;-74
2022/11/18 13:24:10;;;;;;;15.70;15.20;;;11.20;99.90;;;;;;4992027;28;20422;-73
2022/11/18 13:26:40;;;;;;;15.87;15.17;;;11.30;99.90;;;;;;4991428;28;20469;-73
2022/11/18 13:29:38;;;;;;;15.43;14.60;;;11.40;99.90;;;;;;4991944;28;20446;-73
2022/11/18 13:32:20;;;;;;;15.27;14.33;;;11.70;99.90;;;;;;4979828;28;20455;-72
2022/11/18 13:34:49;;;;;;;14.83;13.93;;;11.80;99.90;;;;;;4991461;28;20659;-73
2022/11/18 13:37:19;;;;;;;14.47;13.87;;;12.10;99.90;;;;;;4991566;28;20470;-73
2022/11/18 13:39:48;;;;;;;13.60;13.20;;;12.30;99.90;;;;;;4991751;28;20484;-73
2022/11/18 13:42:18;;;;;;;13.23;12.77;;;12.50;99.90;;;;;;4991601;28;20447;-73
2022/11/18 13:44:47;;;;;;;13.50;12.90;;;12.50;99.90;;;;;;4991661;28;20449;-72
2022/11/18 13:47:23;;;;;;;14.27;13.57;;;12.30;99.90;;;;;;4991435;28;20486;-74
2022/11/18 13:49:57;;;;;;;13.70;13.20;;;12.40;99.90;;;;;;4991365;28;20450;-73
2022/11/18 13:52:28;;;;;;;13.47;12.97;;;12.30;99.90;;;;;;4991727;28;20451;-72
2022/11/18 13:54:59;;;;;;;13.83;13.23;;;12.00;99.90;;;;;;4991695;28;20501;-72
2022/11/18 13:57:27;;;;;;;14.60;13.93;;;12.00;99.90;;;;;;4991675;28;20457;-72
2022/11/18 13:59:55;;;;;;;14.10;13.53;;;12.10;99.90;;;;;;4991473;28;20489;-73
2022/11/18 14:02:22;;;;;;;13.90;13.20;;;12.00;99.90;;;;;;4991174;28;20473;-73
2022/11/18 14:04:53;;;;;;;12.70;12.30;;;12.00;99.90;;;;;;4990957;28;20455;-72
2022/11/18 14:07:29;;;;;;;13.00;12.50;;;12.20;99.90;;;;;;4991076;28;20491;-73
2022/11/18 14:10:00;;;;;;;12.10;11.47;;;12.20;99.90;;;;;;4990934;28;20953;-72
2022/11/18 14:12:31;;;;;;;13.00;12.43;;;12.30;99.90;;;;;;4990845;28;21000;-73
2022/11/18 14:15:20;;;;;;;13.30;12.80;;;12.50;99.90;;;;;;4990780;28;20541;-73
2022/11/18 14:17:53;;;;;;;13.27;12.67;;;12.50;99.90;;;;;;4990722;28;20472;-73
2022/11/18 14:20:20;;;;;;;13.00;12.30;;;12.40;99.90;;;;;;4990631;28;20482;-73
2022/11/18 14:22:50;;;;;;;13.43;12.83;;;12.30;99.90;;;;;;4990675;28;20447;-73
2022/11/18 14:25:22;;;;;;;13.97;13.47;;;12.10;99.90;;;;;;4990710;28;20445;-73
2022/11/18 14:27:50;;;;;;;14.03;13.53;;;11.90;99.90;;;;;;4990673;28;20493;-73
2022/11/18 14:30:34;;;;;;;13.80;13.20;;;11.90;99.90;;;;;;4990433;28;20457;-73
2022/11/18 14:33:10;;;;;;;13.37;12.90;;;12.00;99.90;;;;;;4990587;28;20446;-73
2022/11/18 14:35:37;;;;;;;13.30;12.80;;;12.10;99.90;;;;;;4990741;28;20537;-73
2022/11/18 14:38:13;;;;;;;14.13;13.47;;;12.00;99.90;;;;;;4989720;28;20447;-73
2022/11/18 14:40:41;;;;;;;12.80;12.40;;;12.00;99.90;;;;;;4990862;28;20447;-73
2022/11/18 14:43:10;;;;;;;13.93;13.23;;;12.00;99.90;;;;;;4990531;28;20454;-74
2022/11/18 14:45:37;;;;;;;13.47;12.97;;;11.90;99.90;;;;;;4990155;28;20453;-74
2022/11/18 14:48:05;;;;;;;13.53;13.00;;;11.90;99.90;;;;;;4985400;28;20502;-73
2022/11/18 14:50:32;;;;;;;13.37;12.67;;;11.70;99.90;;;;;;4990648;28;20459;-74
2022/11/18 14:52:58;;;;;;;14.33;13.83;;;11.70;99.90;;;;;;4990550;28;20451;-73
2022/11/18 14:55:25;;;;;;;13.63;13.13;;;11.60;99.90;;;;;;4990526;28;20905;-73
2022/11/18 14:57:53;;;;;;;16.30;15.17;;;11.40;99.90;;;;;;4990329;28;20917;-73
2022/11/18 15:00:21;;;;;;;13.67;13.03;;;11.30;99.90;;;;;;4990498;28;20534;-72
2022/11/18 15:02:48;;;;;;;13.70;12.83;;;11.20;99.90;;;;;;4990007;28;20466;-73
2022/11/18 15:05:15;;;;;;;14.93;14.33;;;11.10;99.90;;;;;;4990127;28;20454;-71
2022/11/18 15:07:42;;;;;;;15.20;14.47;;;10.90;99.90;;;;;;4990115;28;20478;-71
2022/11/18 15:10:13;;;;;;;15.90;15.20;;;10.90;99.90;;;;;;4990146;28;20458;-72
2022/11/18 15:12:39;;;;;;;15.60;14.70;;;10.80;99.90;;;;;;4987907;28;20450;-72
2022/11/18 15:15:08;;;;;;;15.60;14.80;;;10.70;99.90;;;;;;4989735;28;20439;-71
2022/11/18 15:17:35;;;;;;;15.50;14.80;;;10.70;99.90;;;;;;4989199;28;20431;-72
2022/11/18 15:20:03;;;;;;;15.27;14.53;;;10.60;99.90;;;;;;4989083;28;20557;-72
2022/11/18 15:22:30;;;;;;;15.27;14.47;;;10.50;99.90;;;;;;4989351;28;20831;-72
2022/11/18 15:24:57;;;;;;;14.80;14.13;;;10.70;99.90;;;;;;4989414;28;20439;-73
2022/11/18 15:27:23;;;;;;;15.17;14.30;;;10.60;99.90;;;;;;4997960;28;20446;-72
2022/11/18 15:29:50;;;;;;;14.07;13.47;;;10.60;99.90;;;;;;4999622;28;20447;-72
2022/11/18 15:32:18;;;;;;;15.23;14.30;;;10.60;99.90;;;;;;4997779;28;20443;-72
2022/11/18 15:34:45;;;;;;;13.63;13.13;;;10.70;99.90;;;;;;4999495;28;20438;-72
2022/11/18 15:37:12;;;;;;;14.97;13.87;;;10.80;99.90;;;;;;4999972;28;20442;-72
2022/11/18 15:39:39;;;;;;;14.70;13.63;;;10.70;99.90;;;;;;4998375;28;20469;-72
2022/11/18 15:42:06;;;;;;;14.30;13.67;;;10.70;99.90;;;;;;4999063;28;20514;-71
2022/11/18 15:44:32;;;;;;;14.00;13.40;;;10.70;99.90;;;;;;4999719;28;20971;-72
2022/11/18 15:47:00;;;;;;;14.10;13.57;;;10.80;99.90;;;;;;4997752;28;20439;-72
2022/11/18 15:49:28;;;;;;;14.00;13.50;;;10.80;99.90;;;;;;4999409;28;20486;-72
2022/11/18 15:51:55;;;;;;;15.50;14.70;;;10.70;99.90;;;;;;5003781;28;20452;-73
2022/11/18 15:54:21;;;;;;;14.60;13.90;;;10.80;99.90;;;;;;5001978;28;20438;-73
2022/11/18 15:56:48;;;;;;;15.43;14.57;;;10.80;99.90;;;;;;5002389;28;20437;-72
2022/11/18 15:59:16;;;;;;;14.40;13.80;;;10.80;99.90;;;;;;5003638;28;20447;-73
2022/11/18 16:01:44;;;;;;;14.40;13.70;;;10.80;99.90;;;;;;5010527;28;20449;-72
2022/11/18 16:04:12;;;;;;;15.23;14.33;;;10.70;99.90;;;;;;5013111;28;20565;-72
2022/11/18 16:06:43;;;;;;;14.50;13.90;;;10.70;99.90;;;;;;5012923;28;20567;-72
2022/11/18 16:09:10;;;;;;;14.70;14.20;;;10.80;99.90;;;;;;5012840;28;20543;-72
2022/11/18 16:14:22;;;;;;;14.93;14.23;;;10.80;99.90;;;;;;5012797;28;20440;-73
2022/11/18 16:16:52;;;;;;;14.93;14.10;;;10.80;99.90;;;;;;5012694;28;20452;-72
2022/11/18 16:19:22;;;;;;;14.53;13.93;;;10.80;99.90;;;;;;5012425;28;20472;-72
2022/11/18 16:21:53;;;;;;;14.90;14.23;;;10.80;99.90;;;;;;5012300;28;20846;-73
2022/11/18 16:24:21;;;;;;;15.13;14.40;;;10.70;99.90;;;;;;5012054;28;20458;-72
2022/11/18 16:26:48;;;;;;;15.30;14.30;;;10.70;99.90;;;;;;5012402;28;20453;-73
2022/11/18 16:29:16;;;;;;;14.00;13.30;;;10.70;99.90;;;;;;5011823;28;20478;-73
2022/11/18 16:31:43;;;;;;;15.50;14.40;;;10.70;99.90;;;;;;5012462;28;20445;-72
2022/11/18 16:34:12;;;;;;;15.67;14.80;;;10.70;99.90;;;;;;5012097;28;20450;-73
2022/11/18 16:36:40;;;;;;;15.57;14.83;;;10.70;99.90;;;;;;5012611;28;20954;-73
2022/11/18 16:39:10;;;;;;;14.90;14.30;;;10.60;99.90;;;;;;5011724;28;20881;-73
2022/11/18 16:41:39;;;;;;;15.77;14.83;;;10.60;99.90;;;;;;5012491;28;20990;-73
2022/11/18 16:44:07;;;;;;;16.20;15.40;;;10.60;99.90;;;;;;5012249;28;20445;-73
2022/11/18 16:46:35;;;;;;;14.60;13.77;;;10.70;99.90;;;;;;5012055;28;20449;-73
2022/11/18 16:49:03;;;;;;;14.17;13.43;;;10.60;99.90;;;;;;5011880;28;20504;-73
2022/11/18 16:51:30;;;;;;;16.00;15.10;;;10.60;99.90;;;;;;5011931;28;20450;-73
2022/11/18 16:53:59;;;;;;;15.43;14.63;;;10.60;99.90;;;;;;5011846;28;20457;-73
2022/11/18 16:56:29;;;;;;;16.03;15.23;;;10.50;99.90;;;;;;5011902;28;20452;-73
2022/11/18 16:59:00;;;;;;;15.03;14.33;;;10.60;99.90;;;;;;5011953;28;20438;-73
2022/11/18 17:01:27;;;;;;;14.57;13.67;;;10.50;99.90;;;;;;5011442;28;20461;-73
2022/11/18 17:03:55;;;;;;;14.47;13.87;;;10.40;99.90;;;;;;5011906;28;20454;-73
2022/11/18 17:06:23;;;;;;;15.00;14.40;;;10.40;99.90;;;;;;5011945;28;20445;-73
2022/11/18 17:08:50;;;;;;;16.30;15.20;;;10.50;99.90;;;;;;5011609;28;20485;-72
2022/11/18 17:11:17;;;;;;;16.30;15.23;;;10.50;99.90;;;;;;5011608;28;20450;-72
2022/11/18 17:13:45;;;;;;;17.13;15.47;;;10.50;99.90;;;;;;5020259;28;20456;-73
2022/11/18 17:16:14;;;;;;;21.13;19.33;;;10.40;99.90;;;;;;5031342;28;20981;-73
2022/11/18 17:18:41;;;;;;;17.60;16.60;;;10.50;99.90;;;;;;5031297;28;20548;-73
2022/11/18 17:21:10;;;;;;;16.80;15.67;;;10.40;99.90;;;;;;5031404;28;20476;-74
2022/11/18 17:23:37;;;;;;;16.10;15.00;;;10.30;99.90;;;;;;5031312;28;20441;-73
2022/11/18 17:26:05;;;;;;;17.13;16.00;;;10.40;99.90;;;;;;5031076;28;20445;-73
2022/11/18 17:28:33;;;;;;;16.77;15.87;;;10.40;99.90;;;;;;5031048;28;21170;-73
2022/11/18 17:31:06;;;;;;;16.60;15.50;;;10.40;99.90;;;;;;5031084;28;20445;-73